Pagrindinis puslapis
METAR-TAF:

METAR-TAF

Oro uostai :

Genuja, Italija

platuma: 44-25N, ilguma: 008-51E, Aukštis: 2 m

Dabartinis oras

Ataskaita buvo paskelbta 37 minutes, ne 10:20 UTC
Vėjas 7 kt iš Šiaurės/Šiaurės Rytų, svyruoja nuo Šiaurės Vakarų ir Rytų
Temperatūra 24°C
Drėgmė 36%
Slėgis 1023 hPa
Matomumas 10 km arba daugiau
nėra debesų žemiau 1500 m ir nėra kamuolinių lietaus debesų

METAR: LIMJ 211020Z 02007KT 320V080 CAVOK 24/08 Q1023

Laikas: 12:57 (10:57 UTC)

Prognozė

Ataskaita buvo paskelbta 5 valandos ir 57 minutes, ne 05:00 UTC
Prognozė galioja nuo 21 metu 06 UTC su 22 metu 06 UTC
Vėjas 6 kt iš Šiaurės Rytų
Tapsmas
nuo 21 metu 20 UTC su 21 metu 22 UTC
Su prošvaistėmis ne aukštis 4000 ft
lietus

TAF: LIMJ 210500Z 2106/2206 04006KT CAVOC BECMG 2120/2122 RA BKN040

Orai ataskaitas ir orų prognozės (METAR, TAF).

turimą stotys yra geltonos ir raudonos taškus žemėlapyje.

Perkelti pele per norėdami pamatyti stoties vardą.

Tada spustelėkite, norėdami matyti oro stebėjimo ir prognozės.

Norėdami pakeisti žemėlapį: spustelėkite ant žalios mygtukų su juodo kryžiaus žemyn,; žalią mygtuką su brūkšneliu, jei norite nutolinti; arba žalių rodyklių gretimoms žemėlapius.


METAR-TAF: